Greenview, CA (96037)

4:05 PM PDT on August 29, 2014 (GMT -0700)
KCAETNA3 | Change Station
CLOSE
Current Station
Personal Weather Station
Location: Island Rd, Scott Valley, CA
Elevation: 2728 ft
Nearby Weather Stations

Elev 2728 ft 41.55 °N, 122.85 °W | Updated 29 seconds ago

Partly Cloudy
Partly Cloudy
88.5 °F
Feels Like 85 °F
N
2.0
Wind Variable Wind from NNE
Gusts 4.0 mph

Today
High -- | Low -- °F
--% Chance of Precip.
Yesterday
High -- | Low -- °F
Precip. -- in
6:34 AM 7:49 PM
Waxing Crescent, 17% visible
Pressure 29.87 in
Visibility 4.0 miles
Clouds Mostly Cloudy 4400 ft
Overcast 5500 ft
Heat Index 85 °F
Dew Point 45 °F
Humidity 22%
Rainfall 0.00 in
Snow Depth Not available.
UV 2 out of 12
Pollen 6.50 out of 12
Air Quality Not available.
Flu Activity Not available.
METAR KSIY 292253Z AUTO 01007KT 4SM HZ BKN044 OVC055 31/07 A2991 RMK AO2 SLP113 T03110072

More Conditions Fewer Conditions

Pressure 29.87 in
Visibility 4.0 miles
Clouds Mostly Cloudy 4400 ft
Overcast 5500 ft
Heat Index 85 °F
Dew Point 45 °F
Humidity 22%
Rainfall 0.00 in
Snow Depth Not available.
UV 2 out of 12
Pollen 6.50 out of 12
Air Quality Not available.
Flu Activity Not available.
METAR KSIY 292253Z AUTO 01007KT 4SM HZ BKN044 OVC055 31/07 A2991 RMK AO2 SLP113 T03110072

More Conditions Fewer Conditions

10-Day Weather Forecast

Almanac

Astronomy

Aug. 29, 2014 Rise Set
Actual Time 6:34 AM PDT 7:49 PM PDT
Civil Twilight 6:06 AM PDT 8:18 PM PDT
Nautical Twilight 5:31 AM PDT 8:52 PM PDT
Astronomical Twilight 4:55 AM PDT 9:28 PM PDT
Moon 10:33 AM PDT 9:46 PM PDT
Length of Visible Light 14h 11m
Length of Day
13h 14m
Tomorrow will be 2m 39s shorter.
Waxing Crescent, 17% of the Moon is Illuminated
Today
Waxing Crescent
Sep 2
First Quarter
Sep 8
Full
Sep 15
Last Quarter
Sep 24
New

Today's Extremes

State Highs State Lows

Community

WunderPhotos

Upload Photos

1,748,363 photos uploaded!

Nearby

Snow Depth

Station Depth Elevation
Adin Mountain 0 in 6200 ft
CSS Lab 2 in 6900 ft
Summit Meadow 0 in 9122 ft
Leavitt Meadows 0 in 7200 ft

Earthquake Activity

City Distance Mag. Time & Date
No recent earthquake activity has been reported nearby.
Minimum magnitude displayed is 2.5.

Coastal Water Temperatures

Place Temperature
No Stations Reporting

Nearby Weather Stations